Airfield :
LOGIN :

Register | Disclaimer

   EN    FR    IT 

 










Legend :    VFR   Marginal VFR   IFR   Intensive IFR   Very Intensive IFR
Visi :
Ceiling :
>= 8 km
>= 3000ft
5 to 8 km
1000 to 3000 ft
1500m to 5 km
500 to 1000 ft
800 to 1500m
200 to 500 ft
< 800m
< 200 ft
Symbols :   Thunderstorms  Fog  Heavy snow  Heavy precipitations  Wind > 20 kt
SIGMETs :     Misc.  Thunderstorms  Icing  Turbulence  Mountain Waves  Volcanic Ashes






- Airport Elevation : 416 ft
- IATA code : OVD


LEAS - Asturias

CURRENT METAR :
  • 052000Z VRB02KT 9999 FEW005 BKN007 18/17 Q1024 TEMPO 1500 -RADZ BKN002

EXPIRED METARs :
  • 051930Z VRB02KT 9999 SCT005 BKN008 18/17 Q1024 TEMPO 1500 -RADZ BKN002
  • 051900Z VRB01KT 9999 SCT007 BKN009 19/17 Q1024 TEMPO 1500 -RADZ BKN002
  • 051830Z 32004KT 290V010 9999 FEW005 BKN007 19/17 Q1024 TEMPO 1500 -RADZ BKN002
  • 051800Z VRB02KT 9999 SCT007 BKN008 19/18 Q1024 TEMPO 1500 -RADZ BKN002
  • 051738Z 01003KT 290V070 7000 FEW002 BKN005 BKN009 19/18 Q1023 TEMPO 1500 -RADZ BKN002
  • 051730Z VRB02KT 4500 BCFG -DZ FEW002 BKN004 BKN009 19/18 Q1023 TEMPO 1500 BKN002
  • 051722Z VRB02KT 2300 1200NE R29/1400D R11/1500U BCFG -DZ FEW002 BKN004 BKN009 19/18 Q1023 TEMPO 1200 BKN002

TAF AMD TAF LEAS
Valid from the 05 at 17:00 until the 06 at 15:00 UTC


051715Z 0517/0615 01005KT 9999 BKN012 BKN018 TX19/0517Z TN16/0609Z
TEMPO 0517/0609 BKN005 BKN010
TEMPO 0517/0609 3000 -RADZ BKN005
TEMPO 0517/0524 1500 -RADZ BCFG BKN002
PROB40
TEMPO 0517/0524 0800 -RADZ BCFG VV001
BECMG 0606/0608 04015KT



MET'MAP, your aeronautical weather chart ! - Copyright ORBIFLY December 2007 - Disclaimer

ORBIFLY MET'MAP TEAM :

Programming & Development : Alexandra Zaïnal
Concept & original design : Baudouin d'Aumeries
Assistance for programming : Marc-Olivier Méhu
Technical & hardware support : Manuel Goepfert

Contact : metmap@orbifly.com




SOURCES & CREDITS :

   NOAA